Time;durP1;ratioP1;P1;durP2;ratioP2;P2;SDS_P1;SDS_P2;PMS_P1;PMS_P2;Temp;Humidity;BMP_temperature;BMP_pressure;BME280_temperature;BME280_humidity;BME280_pressure;Samples;Min_cycle;Max_cycle;Signal;HPM_P1;HPM_P2
2022/01/28 00:00:35;;;;;;;19.48;3.45;;;4.90;99.90;;;;;;5100542;28;20062;-52
2022/01/28 00:03:08;;;;;;;17.48;4.80;;;4.90;99.90;;;;;;5100587;28;20023;-53
2022/01/28 00:05:36;;;;;;;21.58;3.92;;;4.80;99.90;;;;;;5100089;28;20506;-54
2022/01/28 00:08:02;;;;;;;12.60;3.67;;;4.70;99.90;;;;;;5099283;28;20027;-57
2022/01/28 00:10:28;;;;;;;18.83;4.07;;;4.70;99.90;;;;;;5100465;28;20030;-53
2022/01/28 00:15:34;;;;;;;16.08;3.60;;;4.70;99.90;;;;;;5099865;28;20029;-52
2022/01/28 00:37:10;;;;;;;14.45;3.28;;;4.50;99.90;;;;;;5100051;28;20043;-56
2022/01/28 00:39:36;;;;;;;26.33;5.07;;;4.50;99.90;;;;;;5100182;28;20032;-54
2022/01/28 00:42:03;;;;;;;14.80;3.40;;;4.50;99.90;;;;;;5100247;28;20059;-57
2022/01/28 00:44:28;;;;;;;17.88;3.85;;;4.50;99.90;;;;;;5100311;28;20050;-53
2022/01/28 00:46:54;;;;;;;11.25;3.33;;;4.50;99.90;;;;;;5099028;28;20479;-51
2022/01/28 00:49:20;;;;;;;12.75;3.38;;;4.50;99.90;;;;;;5099946;28;20153;-51
2022/01/28 00:51:46;;;;;;;21.77;4.03;;;4.50;99.90;;;;;;5099800;28;20030;-53
2022/01/28 00:54:11;;;;;;;10.02;3.72;;;4.60;99.90;;;;;;5099336;28;20020;-54
2022/01/28 00:56:37;;;;;;;20.00;3.17;;;4.60;99.90;;;;;;5100560;28;20154;-56
2022/01/28 00:59:03;;;;;;;23.95;4.05;;;4.60;99.90;;;;;;5098926;28;20519;-58
2022/01/28 01:01:29;;;;;;;19.17;3.92;;;4.60;99.90;;;;;;5100057;28;20032;-58
2022/01/28 01:03:59;;;;;;;17.17;4.15;;;4.50;99.90;;;;;;5099773;28;20050;-52
2022/01/28 01:06:25;;;;;;;13.15;3.17;;;4.50;99.90;;;;;;5099602;28;20012;-53
2022/01/28 01:08:51;;;;;;;22.33;5.18;;;4.60;99.90;;;;;;5099550;28;20026;-56
2022/01/28 01:11:20;;;;;;;20.38;4.50;;;4.60;99.90;;;;;;5098890;28;20019;-56
2022/01/28 01:13:46;;;;;;;14.38;3.35;;;4.50;99.90;;;;;;5098188;28;20081;-56
2022/01/28 01:16:14;;;;;;;16.27;4.90;;;4.50;99.90;;;;;;5099039;28;20012;-56
2022/01/28 01:18:50;;;;;;;19.08;4.90;;;4.50;99.90;;;;;;5098994;28;20579;-51
2022/01/28 01:21:23;;;;;;;22.48;4.68;;;4.50;99.90;;;;;;5099506;28;20037;-56
2022/01/28 01:23:56;;;;;;;19.75;4.63;;;4.50;99.90;;;;;;5098722;28;20062;-55
2022/01/28 01:26:35;;;;;;;22.90;3.70;;;4.50;99.90;;;;;;5082036;28;20051;-54
2022/01/28 01:29:19;;;;;;;18.48;4.55;;;4.60;99.90;;;;;;5098631;28;20069;-57
2022/01/28 01:31:45;;;;;;;9.10;2.80;;;4.60;99.90;;;;;;5099387;28;20039;-52
2022/01/28 01:36:37;;;;;;;13.85;3.83;;;4.60;99.90;;;;;;5097991;28;20027;-55
2022/01/28 01:39:04;;;;;;;19.85;4.30;;;4.60;99.90;;;;;;5099021;28;20068;-57
2022/01/28 01:41:37;;;;;;;17.42;3.80;;;4.60;99.90;;;;;;5098498;28;20129;-53
2022/01/28 01:44:08;;;;;;;15.45;3.40;;;4.50;99.90;;;;;;5098517;28;20109;-55
2022/01/28 01:52:02;;;;;;;20.95;4.75;;;4.50;99.90;;;;;;5099009;28;20051;-56
2022/01/28 01:54:46;;;;;;;13.45;3.10;;;4.50;99.90;;;;;;5098520;28;20115;-53
2022/01/28 01:57:13;;;;;;;16.38;4.05;;;4.50;99.90;;;;;;5098748;28;20039;-55
2022/01/28 01:59:41;;;;;;;17.15;3.60;;;4.40;99.90;;;;;;5095984;28;20028;-57
2022/01/28 02:02:07;;;;;;;15.75;3.55;;;4.40;99.90;;;;;;5095616;28;20054;-57
2022/01/28 02:04:33;;;;;;;20.98;3.83;;;4.40;99.90;;;;;;5078836;28;20059;-54
2022/01/28 02:07:00;;;;;;;18.17;4.00;;;4.50;99.90;;;;;;5099136;28;20406;-56
2022/01/28 02:09:26;;;;;;;16.83;3.15;;;4.40;99.90;;;;;;5098172;28;20040;-56
2022/01/28 02:11:51;;;;;;;9.82;3.08;;;4.50;99.90;;;;;;5098823;28;20028;-57
2022/01/28 02:14:17;;;;;;;19.33;4.05;;;4.50;99.90;;;;;;5097155;28;20474;-53
2022/01/28 02:16:43;;;;;;;16.92;3.15;;;4.50;99.90;;;;;;5097885;28;20047;-53
2022/01/28 02:19:08;;;;;;;8.48;2.35;;;4.40;99.90;;;;;;5078592;28;20531;-53
2022/01/28 02:21:40;;;;;;;11.18;2.85;;;4.40;99.90;;;;;;5097355;28;20036;-56
2022/01/28 02:24:07;;;;;;;13.55;3.00;;;4.40;99.90;;;;;;5098094;28;20035;-57
2022/01/28 02:26:35;;;;;;;10.88;2.45;;;4.40;99.90;;;;;;5080151;28;20479;-55
2022/01/28 02:29:07;;;;;;;9.82;2.60;;;4.40;99.90;;;;;;5098193;28;20024;-55
2022/01/28 02:31:33;;;;;;;19.63;3.13;;;4.40;99.90;;;;;;5096893;28;20488;-52
2022/01/28 02:34:00;;;;;;;8.00;2.53;;;4.30;99.90;;;;;;5097494;28;20425;-56
2022/01/28 02:36:26;;;;;;;12.27;2.15;;;4.30;99.90;;;;;;5097952;28;20043;-56
2022/01/28 02:38:53;;;;;;;9.50;3.08;;;4.20;99.90;;;;;;5098567;28;20034;-53
2022/01/28 02:41:18;;;;;;;16.75;3.10;;;4.30;99.90;;;;;;5098036;28;20047;-53
2022/01/28 02:44:14;;;;;;;13.38;2.80;;;4.20;99.90;;;;;;5098501;28;20602;-55
2022/01/28 02:46:52;;;;;;;9.07;2.47;;;4.20;99.90;;;;;;5099401;28;20034;-58
2022/01/28 02:49:18;;;;;;;18.05;2.78;;;4.20;99.90;;;;;;5102248;28;20149;-51
2022/01/28 02:51:44;;;;;;;13.00;2.85;;;4.20;99.90;;;;;;5101671;28;20122;-52
2022/01/28 02:54:15;;;;;;;16.05;3.38;;;4.20;99.90;;;;;;5102067;28;20510;-53
2022/01/28 02:56:48;;;;;;;14.07;4.25;;;4.20;99.90;;;;;;5102630;28;20636;-51
2022/01/28 02:59:13;;;;;;;14.18;3.28;;;4.20;99.90;;;;;;5101328;28;20626;-55
2022/01/28 03:01:39;;;;;;;15.80;3.72;;;4.20;99.90;;;;;;5102334;28;20114;-56
2022/01/28 03:04:06;;;;;;;10.90;3.28;;;4.30;99.90;;;;;;5101748;28;20028;-54
2022/01/28 03:06:32;;;;;;;15.05;2.78;;;4.30;99.90;;;;;;5101401;28;20030;-56
2022/01/28 03:09:01;;;;;;;14.95;3.67;;;4.30;99.90;;;;;;5101335;28;20031;-58
2022/01/28 03:17:10;;;;;;;16.52;3.30;;;4.40;99.90;;;;;;5100818;28;20031;-56
2022/01/28 03:19:52;;;;;;;15.50;3.63;;;4.30;99.90;;;;;;5101190;28;20074;-58
2022/01/28 03:22:18;;;;;;;17.02;3.10;;;4.40;99.90;;;;;;5100682;28;20035;-56
2022/01/28 03:24:47;;;;;;;15.25;4.07;;;4.30;99.90;;;;;;5101885;28;20028;-55
2022/01/28 03:27:20;;;;;;;17.73;3.88;;;4.20;99.90;;;;;;5101290;28;20392;-52
2022/01/28 03:29:46;;;;;;;10.95;3.13;;;4.10;99.90;;;;;;5101667;28;20043;-54
2022/01/28 03:32:11;;;;;;;15.57;3.58;;;4.00;99.90;;;;;;5100714;28;20444;-56
2022/01/28 03:34:37;;;;;;;15.02;3.53;;;3.90;99.90;;;;;;5100740;28;20032;-53
2022/01/28 03:37:05;;;;;;;18.98;3.53;;;3.90;99.90;;;;;;5100957;28;20039;-54
2022/01/28 03:39:30;;;;;;;17.52;3.58;;;3.80;99.90;;;;;;5099854;28;20036;-54
2022/01/28 03:41:56;;;;;;;13.80;3.38;;;3.80;99.90;;;;;;5099718;28;20566;-55
2022/01/28 03:44:21;;;;;;;19.17;3.00;;;3.90;99.90;;;;;;5101726;28;20564;-53
2022/01/28 03:46:47;;;;;;;16.60;3.92;;;3.90;99.90;;;;;;5099580;28;20035;-55
2022/01/28 03:49:13;;;;;;;13.90;3.10;;;4.00;99.90;;;;;;5100705;28;20479;-54
2022/01/28 03:51:38;;;;;;;9.93;2.78;;;4.00;99.90;;;;;;5100112;28;20036;-57
2022/01/28 03:54:04;;;;;;;20.17;3.80;;;4.00;99.90;;;;;;5098604;28;20043;-52
2022/01/28 03:56:29;;;;;;;17.55;4.00;;;3.90;99.90;;;;;;5100335;28;20507;-56
2022/01/28 03:58:55;;;;;;;17.40;4.07;;;3.90;99.90;;;;;;5099466;28;20506;-53
2022/01/28 04:01:27;;;;;;;19.33;4.25;;;3.90;99.90;;;;;;5100675;28;20051;-57
2022/01/28 04:11:50;;;;;;;13.85;3.78;;;3.90;99.90;;;;;;5100304;28;20540;-53
2022/01/28 04:14:32;;;;;;;18.92;3.28;;;3.90;99.90;;;;;;5100192;28;20089;-50
2022/01/28 04:19:43;;;;;;;21.67;3.70;;;3.90;99.90;;;;;;5100390;28;20031;-52
2022/01/28 04:22:09;;;;;;;14.02;3.35;;;3.90;99.90;;;;;;5098835;28;20007;-56
2022/01/28 04:24:34;;;;;;;19.15;4.05;;;3.80;99.90;;;;;;5082318;28;20771;-52
2022/01/28 04:27:00;;;;;;;17.90;3.55;;;3.90;99.90;;;;;;5081665;28;20016;-54
2022/01/28 04:29:26;;;;;;;17.50;3.67;;;3.90;99.90;;;;;;5100157;28;20027;-54
2022/01/28 04:31:51;;;;;;;16.40;5.03;;;3.90;99.90;;;;;;5099812;28;20036;-55
2022/01/28 04:34:19;;;;;;;17.08;3.88;;;3.90;99.90;;;;;;5099308;28;20035;-55
2022/01/28 04:37:05;;;;;;;19.35;4.45;;;3.90;99.90;;;;;;5098859;28;20015;-54
2022/01/28 04:42:19;;;;;;;19.85;3.20;;;4.00;99.90;;;;;;5098990;28;20443;-54
2022/01/28 04:47:21;;;;;;;17.90;4.07;;;4.00;99.90;;;;;;5098833;28;20567;-51
2022/01/28 04:50:03;;;;;;;16.67;3.55;;;4.00;99.90;;;;;;5099925;28;20028;-52
2022/01/28 04:55:15;;;;;;;17.17;3.40;;;4.00;99.90;;;;;;5099514;28;20489;-51
2022/01/28 04:58:02;;;;;;;24.45;3.92;;;4.00;99.90;;;;;;5099079;28;20028;-55
2022/01/28 05:26:37;;;;;;;14.60;3.38;;;4.10;99.90;;;;;;5097059;28;20036;-55
2022/01/28 05:29:03;;;;;;;22.25;3.30;;;4.10;99.90;;;;;;5092558;28;20169;-51
2022/01/28 05:31:29;;;;;;;13.73;3.58;;;4.00;99.90;;;;;;5087283;28;20119;-52
2022/01/28 05:33:54;;;;;;;22.75;4.35;;;4.00;99.90;;;;;;5087806;28;20551;-55
2022/01/28 05:36:20;;;;;;;14.38;3.63;;;4.00;99.90;;;;;;5087174;28;20028;-56
2022/01/28 05:38:46;;;;;;;16.55;3.22;;;3.90;99.90;;;;;;5087741;28;20024;-54
2022/01/28 05:41:12;;;;;;;18.52;3.90;;;3.90;99.90;;;;;;5069489;28;20023;-51
2022/01/28 05:43:37;;;;;;;13.15;4.65;;;3.90;99.90;;;;;;5087118;28;20097;-52
2022/01/28 05:46:03;;;;;;;17.35;4.30;;;3.90;99.90;;;;;;5087102;28;20020;-51
2022/01/28 05:48:29;;;;;;;15.20;3.72;;;3.90;99.90;;;;;;5086658;28;20090;-53
2022/01/28 05:50:54;;;;;;;23.40;4.35;;;3.90;99.90;;;;;;5087343;28;20020;-53
2022/01/28 05:53:20;;;;;;;14.20;3.45;;;4.00;99.90;;;;;;5086950;28;20059;-52
2022/01/28 05:55:46;;;;;;;20.25;4.28;;;4.00;99.90;;;;;;5088048;28;20027;-52
2022/01/28 05:58:11;;;;;;;13.20;3.60;;;4.00;99.90;;;;;;5087254;28;20130;-50
2022/01/28 06:00:37;;;;;;;17.13;4.22;;;4.00;99.90;;;;;;5069107;28;20035;-54
2022/01/28 06:03:03;;;;;;;16.98;3.90;;;4.00;99.90;;;;;;5086679;28;20449;-50
2022/01/28 06:05:31;;;;;;;12.68;3.13;;;3.90;99.90;;;;;;5086582;28;20039;-52
2022/01/28 06:07:58;;;;;;;17.40;3.42;;;3.90;99.90;;;;;;5087735;28;20020;-51
2022/01/28 06:10:24;;;;;;;15.70;3.75;;;3.90;99.90;;;;;;5086963;28;20036;-52
2022/01/28 06:12:50;;;;;;;19.42;3.70;;;3.90;99.90;;;;;;5087050;28;20027;-51
2022/01/28 06:15:15;;;;;;;11.27;2.60;;;3.90;99.90;;;;;;5086585;28;20403;-53
2022/01/28 06:17:42;;;;;;;22.50;3.55;;;4.00;99.90;;;;;;5086910;28;20035;-53
2022/01/28 06:20:10;;;;;;;15.68;3.35;;;4.00;99.90;;;;;;5069809;28;20049;-56
2022/01/28 06:22:39;;;;;;;12.93;3.92;;;4.00;99.90;;;;;;5090563;28;20032;-54
2022/01/28 06:25:07;;;;;;;18.15;3.70;;;4.00;99.90;;;;;;5090902;28;20029;-52
2022/01/28 06:27:32;;;;;;;21.70;2.72;;;4.00;99.90;;;;;;5089961;28;20499;-54
2022/01/28 06:29:58;;;;;;;17.65;3.30;;;4.00;99.90;;;;;;5091607;28;20102;-51
2022/01/28 06:32:23;;;;;;;17.75;4.28;;;4.00;99.90;;;;;;5090417;28;20032;-55
2022/01/28 06:34:49;;;;;;;17.15;3.47;;;4.00;99.90;;;;;;5091076;28;20020;-52
2022/01/28 06:37:14;;;;;;;21.13;3.78;;;4.00;99.90;;;;;;5090483;28;20016;-54
2022/01/28 06:39:40;;;;;;;12.85;4.03;;;4.00;99.90;;;;;;5090447;28;20043;-53
2022/01/28 06:42:06;;;;;;;12.18;3.75;;;4.00;99.90;;;;;;5072475;28;20453;-52
2022/01/28 06:44:32;;;;;;;12.93;4.32;;;4.00;99.90;;;;;;5090679;28;20063;-54
2022/01/28 06:46:58;;;;;;;10.15;3.17;;;4.00;99.90;;;;;;5089749;28;20051;-50
2022/01/28 06:49:23;;;;;;;15.48;3.60;;;4.00;99.90;;;;;;5090226;28;20055;-51
2022/01/28 06:51:49;;;;;;;16.55;3.10;;;4.00;99.90;;;;;;5090884;28;20114;-52
2022/01/28 06:54:15;;;;;;;15.48;3.45;;;3.90;99.90;;;;;;5089991;28;20016;-52
2022/01/28 06:56:40;;;;;;;13.23;3.53;;;3.90;99.90;;;;;;5090533;28;20551;-54
2022/01/28 06:59:06;;;;;;;21.25;3.88;;;3.90;99.90;;;;;;5090584;28;20522;-53
2022/01/28 07:01:31;;;;;;;13.40;2.85;;;3.90;99.90;;;;;;5090921;28;20785;-53
2022/01/28 07:03:57;;;;;;;15.63;3.70;;;3.90;99.90;;;;;;5090458;28;20012;-52
2022/01/28 07:06:23;;;;;;;14.32;3.53;;;3.80;99.90;;;;;;5090198;28;20466;-53
2022/01/28 07:08:49;;;;;;;12.80;3.45;;;3.90;99.90;;;;;;5071993;28;20020;-52
2022/01/28 07:11:17;;;;;;;16.67;3.47;;;3.90;99.90;;;;;;5089887;28;20027;-52
2022/01/28 07:13:42;;;;;;;11.95;3.70;;;3.80;99.90;;;;;;5071421;28;20102;-53
2022/01/28 07:16:08;;;;;;;16.40;3.40;;;3.80;99.90;;;;;;5090243;28;20786;-54
2022/01/28 07:18:33;;;;;;;15.65;3.17;;;3.80;99.90;;;;;;5089224;28;20031;-56
2022/01/28 07:20:59;;;;;;;19.90;4.90;;;3.80;99.90;;;;;;5090336;28;20054;-53
2022/01/28 07:23:25;;;;;;;16.40;3.70;;;3.80;99.90;;;;;;5089212;28;20051;-53
2022/01/28 07:25:50;;;;;;;18.35;3.53;;;3.70;99.90;;;;;;5091172;28;20065;-51
2022/01/28 07:28:16;;;;;;;14.43;4.38;;;3.70;99.90;;;;;;5089184;28;20031;-53
2022/01/28 07:30:41;;;;;;;16.65;3.70;;;3.70;99.90;;;;;;5088768;28;20543;-51
2022/01/28 07:33:08;;;;;;;15.30;3.53;;;3.60;99.90;;;;;;5089846;28;20445;-51
2022/01/28 07:35:34;;;;;;;14.75;3.42;;;3.60;99.90;;;;;;5088500;28;20028;-52
2022/01/28 07:38:00;;;;;;;18.13;3.15;;;3.60;99.90;;;;;;5089927;28;20085;-52
2022/01/28 07:40:26;;;;;;;15.00;4.13;;;3.50;99.90;;;;;;5089321;28;20028;-51
2022/01/28 07:42:52;;;;;;;18.75;3.95;;;3.50;99.90;;;;;;5089735;28;20103;-51
2022/01/28 07:45:17;;;;;;;14.02;3.92;;;3.50;99.90;;;;;;5088803;28;20111;-54
2022/01/28 07:47:44;;;;;;;14.38;4.07;;;3.50;99.90;;;;;;5089114;28;20024;-55
2022/01/28 07:50:11;;;;;;;17.15;5.05;;;3.50;99.90;;;;;;5089381;28;20023;-52
2022/01/28 07:52:38;;;;;;;19.92;4.63;;;3.50;99.90;;;;;;5088171;28;20066;-54
2022/01/28 07:55:06;;;;;;;19.02;4.97;;;3.40;99.90;;;;;;5071378;28;20032;-56
2022/01/28 07:57:31;;;;;;;13.40;3.92;;;3.40;99.90;;;;;;5087779;28;20024;-53
2022/01/28 07:59:57;;;;;;;18.27;3.75;;;3.40;99.90;;;;;;5088737;28;20031;-55
2022/01/28 08:02:23;;;;;;;20.48;5.20;;;3.40;99.90;;;;;;5088221;28;20017;-54
2022/01/28 08:04:48;;;;;;;17.83;4.07;;;3.40;99.90;;;;;;5088469;28;20073;-52
2022/01/28 08:07:14;;;;;;;19.33;3.55;;;3.40;99.90;;;;;;5089602;28;20020;-50
2022/01/28 08:09:40;;;;;;;23.92;4.00;;;3.50;99.90;;;;;;5087790;28;20111;-52
2022/01/28 08:12:06;;;;;;;19.65;4.40;;;3.40;99.90;;;;;;5089147;28;20081;-55
2022/01/28 08:14:31;;;;;;;20.42;4.90;;;3.50;99.90;;;;;;5088444;28;20028;-52
2022/01/28 08:16:58;;;;;;;18.23;4.28;;;3.50;99.90;;;;;;5088899;28;20020;-54
2022/01/28 08:19:24;;;;;;;17.10;3.50;;;3.50;99.90;;;;;;5087361;28;20514;-51
2022/01/28 08:21:49;;;;;;;21.50;4.07;;;3.50;99.90;;;;;;5088977;28;20016;-54
2022/01/28 08:24:15;;;;;;;22.25;4.43;;;3.60;99.90;;;;;;5088260;28;20020;-51
2022/01/28 08:26:41;;;;;;;24.05;5.50;;;3.60;99.90;;;;;;5088317;28;20535;-51
2022/01/28 08:29:07;;;;;;;16.80;3.95;;;3.60;99.90;;;;;;5088477;28;20395;-51
2022/01/28 08:31:33;;;;;;;21.38;4.95;;;3.60;99.90;;;;;;5087992;28;20056;-53
2022/01/28 08:33:59;;;;;;;17.33;4.45;;;3.60;99.90;;;;;;5088729;28;20024;-52
2022/01/28 08:36:25;;;;;;;30.17;4.53;;;3.70;99.90;;;;;;5086476;28;20415;-50
2022/01/28 08:38:54;;;;;;;19.55;4.43;;;3.70;99.90;;;;;;5088416;28;20021;-54
2022/01/28 08:41:20;;;;;;;21.60;4.07;;;3.70;99.90;;;;;;5088738;28;20535;-52
2022/01/28 08:43:45;;;;;;;21.08;4.95;;;3.70;99.90;;;;;;5086855;28;20024;-50
2022/01/28 08:46:11;;;;;;;27.45;5.05;;;3.70;99.90;;;;;;5087917;28;20028;-49
2022/01/28 08:48:37;;;;;;;29.52;5.28;;;3.70;99.90;;;;;;5089035;28;20031;-50
2022/01/28 08:51:03;;;;;;;22.75;5.07;;;3.80;99.90;;;;;;5088583;28;20111;-53
2022/01/28 08:53:28;;;;;;;14.63;4.38;;;3.80;99.90;;;;;;5087922;28;20439;-51
2022/01/28 08:55:54;;;;;;;16.83;5.00;;;3.80;99.90;;;;;;5069285;28;20659;-54
2022/01/28 08:58:20;;;;;;;23.50;4.95;;;3.90;99.90;;;;;;5087820;28;20093;-50
2022/01/28 09:00:48;;;;;;;18.70;4.00;;;3.90;99.90;;;;;;5086611;28;20020;-54
2022/01/28 09:03:16;;;;;;;23.08;4.15;;;3.90;99.90;;;;;;5088065;28;20012;-52
2022/01/28 09:05:42;;;;;;;20.50;5.18;;;4.00;99.90;;;;;;5088196;28;20020;-53
2022/01/28 09:08:09;;;;;;;22.88;4.72;;;4.00;99.90;;;;;;5087807;28;20748;-51
2022/01/28 09:10:43;;;;;;;14.70;4.22;;;4.10;99.90;;;;;;5087426;28;20483;-49
2022/01/28 09:13:10;;;;;;;22.10;4.82;;;4.20;99.90;;;;;;5086727;28;20027;-51
2022/01/28 09:15:39;;;;;;;26.95;4.53;;;4.20;99.90;;;;;;5088268;28;20455;-51
2022/01/28 09:18:05;;;;;;;21.92;4.10;;;4.30;99.90;;;;;;5086875;28;20036;-52
2022/01/28 09:20:32;;;;;;;20.10;4.60;;;4.30;99.90;;;;;;5087191;28;20114;-50
2022/01/28 09:23:00;;;;;;;19.30;4.38;;;4.40;99.90;;;;;;5088327;28;20024;-50
2022/01/28 09:25:26;;;;;;;21.15;5.10;;;4.40;99.90;;;;;;5086379;28;20107;-49
2022/01/28 09:27:52;;;;;;;20.45;3.58;;;4.50;99.90;;;;;;5087801;28;20016;-49
2022/01/28 09:30:18;;;;;;;17.08;4.18;;;4.50;99.90;;;;;;5086976;28;20047;-49
2022/01/28 09:32:44;;;;;;;21.42;4.28;;;4.60;99.90;;;;;;5087087;28;20017;-49
2022/01/28 09:35:10;;;;;;;22.30;3.80;;;4.70;99.90;;;;;;5087321;28;20076;-52
2022/01/28 09:37:36;;;;;;;17.95;5.05;;;4.70;99.90;;;;;;5086812;28;20065;-52
2022/01/28 09:40:03;;;;;;;14.23;4.80;;;4.80;99.90;;;;;;5086639;28;20076;-51
2022/01/28 09:42:32;;;;;;;13.80;4.18;;;4.80;99.90;;;;;;5086547;28;20028;-54
2022/01/28 09:44:59;;;;;;;17.75;3.83;;;4.90;99.90;;;;;;5087481;28;20450;-52
2022/01/28 09:47:25;;;;;;;16.98;4.32;;;4.90;99.90;;;;;;5086729;28;20027;-49
2022/01/28 09:49:51;;;;;;;20.90;5.25;;;4.90;99.90;;;;;;5088070;28;20024;-49
2022/01/28 09:52:18;;;;;;;17.75;4.10;;;5.00;99.90;;;;;;5087052;28;20027;-50
2022/01/28 09:54:46;;;;;;;13.10;4.10;;;5.10;99.90;;;;;;5069013;28;20073;-53
2022/01/28 09:57:12;;;;;;;16.35;3.80;;;5.10;99.90;;;;;;5086892;28;20020;-51
2022/01/28 09:59:38;;;;;;;19.45;4.72;;;5.10;99.90;;;;;;5067924;28;20073;-54
2022/01/28 10:02:04;;;;;;;16.98;4.15;;;5.20;99.90;;;;;;5087390;28;20024;-51
2022/01/28 10:04:30;;;;;;;12.52;4.10;;;5.20;99.90;;;;;;5086286;28;20034;-52
2022/01/28 10:06:57;;;;;;;13.90;4.10;;;5.30;99.90;;;;;;5087760;28;20110;-51
2022/01/28 10:09:23;;;;;;;15.50;4.55;;;5.30;99.90;;;;;;5086847;28;20105;-51
2022/01/28 10:11:53;;;;;;;19.48;4.13;;;5.40;99.90;;;;;;5085932;28;20016;-51
2022/01/28 10:14:23;;;;;;;15.98;3.95;;;5.40;99.90;;;;;;5068877;28;20376;-52
2022/01/28 10:16:59;;;;;;;18.38;3.60;;;5.50;99.90;;;;;;5087021;28;20020;-50
2022/01/28 10:19:40;;;;;;;15.13;3.35;;;5.60;99.90;;;;;;5085737;28;20113;-50
2022/01/28 10:22:17;;;;;;;15.88;3.80;;;5.60;99.90;;;;;;5068411;28;20016;-49
2022/01/28 10:24:43;;;;;;;14.70;3.30;;;5.60;99.90;;;;;;5086324;28;20068;-53
2022/01/28 10:27:09;;;;;;;15.10;3.80;;;5.60;99.90;;;;;;5086690;28;20113;-50
2022/01/28 10:29:36;;;;;;;18.67;3.90;;;5.70;99.90;;;;;;5085506;28;20376;-53
2022/01/28 10:32:03;;;;;;;14.40;3.72;;;5.80;99.90;;;;;;5086799;28;20058;-51
2022/01/28 10:34:34;;;;;;;16.33;3.83;;;5.80;99.90;;;;;;5085827;28;20032;-50
2022/01/28 10:37:14;;;;;;;13.18;2.85;;;5.90;99.90;;;;;;5086907;28;20487;-50
2022/01/28 10:39:59;;;;;;;10.27;3.17;;;5.90;99.90;;;;;;5085552;28;20078;-51
2022/01/28 10:42:25;;;;;;;17.92;3.78;;;5.90;99.90;;;;;;5085397;28;20021;-53
2022/01/28 10:45:00;;;;;;;17.23;3.67;;;5.90;99.90;;;;;;5086783;28;20030;-52
2022/01/28 10:47:34;;;;;;;14.95;3.55;;;6.00;99.90;;;;;;5085900;28;20031;-49
2022/01/28 10:50:13;;;;;;;11.20;2.95;;;6.00;99.90;;;;;;5086842;28;20028;-52
2022/01/28 10:52:39;;;;;;;11.35;3.10;;;6.00;99.90;;;;;;5084288;28;20020;-49
2022/01/28 10:55:05;;;;;;;11.15;3.05;;;6.00;99.90;;;;;;5086429;28;20107;-49
2022/01/28 10:57:31;;;;;;;15.43;3.58;;;6.10;99.90;;;;;;5085917;28;20024;-50
2022/01/28 10:59:57;;;;;;;13.02;4.10;;;6.10;99.90;;;;;;5086761;28;20539;-53
2022/01/28 11:02:26;;;;;;;13.18;3.50;;;6.10;99.90;;;;;;5086302;28;20045;-51
2022/01/28 11:04:55;;;;;;;18.77;4.13;;;6.10;99.90;;;;;;5086294;28;20024;-51
2022/01/28 11:07:21;;;;;;;15.57;4.53;;;6.10;99.90;;;;;;5086940;28;20039;-53
2022/01/28 11:09:48;;;;;;;11.40;3.45;;;6.20;99.90;;;;;;5089612;28;20040;-51
2022/01/28 11:12:14;;;;;;;9.40;3.13;;;6.20;99.90;;;;;;5089834;28;20540;-52
2022/01/28 11:14:41;;;;;;;16.75;3.67;;;6.30;99.90;;;;;;5089573;28;20032;-50
2022/01/28 11:17:10;;;;;;;13.45;3.42;;;6.20;99.90;;;;;;5089810;28;20169;-51
2022/01/28 11:19:38;;;;;;;13.10;2.55;;;6.20;99.90;;;;;;5116683;22;20043;-78
2022/01/28 11:22:20;;;;;;;16.40;3.15;;;6.30;99.90;;;;;;5125377;27;20451;-78
2022/01/28 11:24:56;;;;;;;11.23;2.60;;;6.20;99.90;;;;;;5095688;28;20045;-78
2022/01/28 11:27:48;;;;;;;12.45;2.65;;;6.30;99.90;;;;;;5107560;28;20048;-78
2022/01/28 11:30:22;;;;;;;14.55;2.45;;;6.30;99.90;;;;;;5086374;28;20024;-78
2022/01/28 11:33:11;;;;;;;10.00;2.53;;;6.30;99.90;;;;;;5080962;28;20039;-77
2022/01/28 11:35:52;;;;;;;12.40;3.40;;;6.20;99.90;;;;;;5103145;28;20400;-77
2022/01/28 11:38:30;;;;;;;23.50;4.28;;;6.30;99.90;;;;;;5088139;28;20055;-77
2022/01/28 11:41:07;;;;;;;16.48;2.22;;;6.30;99.90;;;;;;5090645;28;20020;-78
2022/01/28 11:43:42;;;;;;;16.95;3.50;;;6.30;99.90;;;;;;5080146;28;20426;-77
2022/01/28 11:46:25;;;;;;;16.48;3.10;;;6.30;99.90;;;;;;5100225;28;20024;-77
2022/01/28 11:49:17;;;;;;;16.17;3.13;;;6.30;99.90;;;;;;5100876;28;20487;-77
2022/01/28 11:51:43;;;;;;;8.57;2.38;;;6.40;99.90;;;;;;5080366;28;20107;-78
2022/01/28 11:54:14;;;;;;;13.43;2.80;;;6.40;99.90;;;;;;5104679;22;20044;-57
2022/01/28 11:57:13;;;;;;;13.50;3.75;;;6.30;99.90;;;;;;5081346;28;20059;-57
2022/01/28 11:59:39;;;;;;;14.25;2.92;;;6.30;99.90;;;;;;5069153;28;20378;-57
2022/01/28 12:02:09;;;;;;;10.48;2.38;;;6.30;99.90;;;;;;5060100;28;20070;-52
2022/01/28 12:04:36;;;;;;;8.52;3.13;;;6.30;99.90;;;;;;5060805;28;20025;-56
2022/01/28 12:07:14;;;;;;;14.38;2.65;;;6.30;99.90;;;;;;5059955;28;20033;-56
2022/01/28 12:09:46;;;;;;;15.32;3.60;;;6.30;99.90;;;;;;5060583;28;20108;-57
2022/01/28 12:12:13;;;;;;;13.20;2.90;;;6.30;99.90;;;;;;5060558;28;20025;-55
2022/01/28 12:14:57;;;;;;;10.80;2.60;;;6.40;99.90;;;;;;5060185;28;20527;-55
2022/01/28 12:17:31;;;;;;;7.07;2.03;;;6.40;99.90;;;;;;5060705;28;20074;-58
2022/01/28 12:20:15;;;;;;;12.73;3.10;;;6.40;99.90;;;;;;5059161;28;20017;-57
2022/01/28 12:22:59;;;;;;;17.40;2.85;;;6.40;99.90;;;;;;5060197;28;20423;-56
2022/01/28 12:25:37;;;;;;;10.80;2.53;;;6.40;99.90;;;;;;5060049;28;20025;-54
2022/01/28 12:28:24;;;;;;;8.50;2.50;;;6.50;99.90;;;;;;5059879;28;20514;-58
2022/01/28 12:31:02;;;;;;;12.63;2.30;;;6.50;99.90;;;;;;5059764;28;20393;-57
2022/01/28 12:33:39;;;;;;;12.90;3.00;;;6.50;99.90;;;;;;5059717;28;20024;-55
2022/01/28 12:36:30;;;;;;;16.95;3.40;;;6.50;99.90;;;;;;5059471;28;20017;-58
2022/01/28 12:39:09;;;;;;;12.90;3.88;;;6.50;99.90;;;;;;5048425;28;20028;-55
2022/01/28 12:41:50;;;;;;;12.95;3.00;;;6.50;99.90;;;;;;5059998;28;20116;-59
2022/01/28 12:44:17;;;;;;;11.85;2.60;;;6.50;99.90;;;;;;5059684;28;20017;-55
2022/01/28 12:46:52;;;;;;;8.90;1.88;;;6.50;99.90;;;;;;5060102;28;20034;-57
2022/01/28 12:49:27;;;;;;;13.88;2.90;;;6.50;99.90;;;;;;5059162;28;20465;-57
2022/01/28 12:51:56;;;;;;;17.92;3.20;;;6.50;99.90;;;;;;5058180;28;20112;-56
2022/01/28 12:54:40;;;;;;;12.90;3.30;;;6.50;99.90;;;;;;5059323;28;20576;-57
2022/01/28 12:57:20;;;;;;;14.90;2.80;;;6.50;99.90;;;;;;5059663;28;20020;-54
2022/01/28 12:59:47;;;;;;;16.35;3.85;;;6.50;99.90;;;;;;5058288;28;20028;-56
2022/01/28 13:02:14;;;;;;;16.58;2.65;;;6.50;99.90;;;;;;5059135;28;20020;-56
2022/01/28 13:09:57;;;;;;;9.65;3.08;;;6.50;99.90;;;;;;5058096;28;20034;-56
2022/01/28 13:12:28;;;;;;;11.50;3.17;;;6.50;99.90;;;;;;5058690;28;20408;-55
2022/01/28 13:14:54;;;;;;;12.40;3.58;;;6.50;99.90;;;;;;5059651;28;20028;-55
2022/01/28 13:17:22;;;;;;;13.18;3.30;;;6.50;99.90;;;;;;5058874;28;20074;-55
2022/01/28 13:20:01;;;;;;;15.27;3.90;;;6.50;99.90;;;;;;5058832;28;20104;-58
2022/01/28 13:22:29;;;;;;;12.15;2.75;;;6.50;99.90;;;;;;5058284;28;20556;-54
2022/01/28 13:24:56;;;;;;;10.85;3.17;;;6.50;99.90;;;;;;5058736;28;20488;-54
2022/01/28 13:27:37;;;;;;;11.48;4.22;;;6.50;99.90;;;;;;5059090;28;20031;-58
2022/01/28 13:30:12;;;;;;;14.40;3.25;;;6.40;99.90;;;;;;5056823;28;20547;-54
2022/01/28 13:32:40;;;;;;;12.35;3.55;;;6.30;99.90;;;;;;5058718;28;20111;-56
2022/01/28 13:35:11;;;;;;;11.85;3.65;;;6.20;99.90;;;;;;5058717;28;20009;-55
2022/01/28 13:37:41;;;;;;;16.20;3.40;;;6.10;99.90;;;;;;5058741;28;20068;-55
2022/01/28 13:40:10;;;;;;;8.45;2.58;;;6.10;99.90;;;;;;5058014;28;20077;-54
2022/01/28 13:42:37;;;;;;;13.32;4.35;;;6.10;99.90;;;;;;5058714;28;20025;-57
2022/01/28 13:45:05;;;;;;;18.15;3.88;;;6.10;99.90;;;;;;5059813;28;20109;-58
2022/01/28 13:47:50;;;;;;;14.90;3.10;;;6.10;99.90;;;;;;5058694;28;20388;-56
2022/01/28 13:50:27;;;;;;;16.50;3.00;;;6.10;99.90;;;;;;5057507;28;20369;-58
2022/01/28 13:55:54;;;;;;;11.63;3.38;;;5.90;99.90;;;;;;5058842;28;20106;-55
2022/01/28 13:58:20;;;;;;;14.55;3.33;;;5.90;99.90;;;;;;5058234;28;20166;-57
2022/01/28 14:00:50;;;;;;;11.70;3.40;;;5.80;99.90;;;;;;5058352;28;20025;-57
2022/01/28 14:03:22;;;;;;;13.48;3.13;;;5.80;99.90;;;;;;5058126;28;20024;-54
2022/01/28 14:05:56;;;;;;;20.17;4.03;;;5.70;99.90;;;;;;5058301;28;20035;-55
2022/01/28 14:08:44;;;;;;;18.70;4.00;;;5.60;99.90;;;;;;5058623;28;20029;-55
2022/01/28 14:11:21;;;;;;;16.42;3.40;;;5.60;99.90;;;;;;5058300;28;20025;-56
2022/01/28 14:14:12;;;;;;;12.27;3.58;;;5.50;99.90;;;;;;5056705;28;20024;-56
2022/01/28 14:16:38;;;;;;;16.55;4.15;;;5.50;99.90;;;;;;5058295;28;20036;-59
2022/01/28 14:19:04;;;;;;;18.23;3.83;;;5.40;99.90;;;;;;5057433;28;20028;-55
2022/01/28 14:21:30;;;;;;;17.10;3.25;;;5.40;99.90;;;;;;5058586;28;20107;-56
2022/01/28 14:23:55;;;;;;;16.52;3.35;;;5.30;99.90;;;;;;5057894;28;20461;-56
2022/01/28 14:26:21;;;;;;;18.92;3.70;;;5.30;99.90;;;;;;5058887;28;20046;-57